Latest Weather Observations for Combienbar

IDV60801

Issued at 2:42 pm EDT Friday 16 November 2018 (issued every 10 minutes, with the page automatically refreshed every 10 minutes)

About weather observations | Map of weather stations | Latest weather observations for VIC | Other Formats
Station Details ID: 084143 Name: COMBIENBAR AWS Lat: -37.34 Lon: 149.02 Height: 640.0 m
Data from the previous 72 hours. | See also: Recent months at Combienbar
Date/Time
EDT
Temp
°C
App
Temp
°C
Dew
Point
°C
Rel
Hum
%
Delta-T
°C
Wind Press
QNH
hPa
Press
MSL
hPa
Rain since
9am
mm
Dir  Spd
km/h
Gust
km/h
Spd
kts
Gust
kts
16/02:30pm 20.1 19.4 9.9 52 5.6 ENE 4 9 2 5 1018.3 1016.7 0.0
16/02:00pm 21.8 21.3 10.6 49 6.3 NE 4 7 2 4 1018.5 1016.9 0.0
16/01:30pm 20.0 19.6 9.9 52 5.6 NNE 2 6 1 3 1019.0 1017.4 0.0
16/01:00pm 21.2 20.6 10.4 50 6.0 NE 4 11 2 6 1019.3 1017.7 0.0
16/12:30pm 19.8 18.9 10.8 56 5.1 NNE 6 11 3 6 1019.9 1018.3 0.0
16/12:00pm 19.4 18.3 10.1 55 5.1 NNE 6 15 3 8 1020.2 1018.6 0.0
16/11:30am 16.6 16.1 9.3 62 3.9 ENE 2 7 1 4 1020.7 1019.1 0.0
16/11:00am 18.2 17.2 10.3 60 4.3 NNE 6 11 3 6 1020.8 1019.3 0.0
16/10:30am 15.5 14.5 9.0 65 3.4 ENE 4 17 2 9 1021.2 1019.6 0.0
16/10:00am 15.5 14.0 8.5 63 3.7 NNE 6 13 3 7 1021.6 1020.0 0.0
16/09:30am 15.7 14.4 10.0 69 3.1 NNE 7 17 4 9 1021.9 1020.3 0.0
16/09:00am 13.2 11.7 8.5 73 2.4 NE 6 11 3 6 1021.8 1020.2 0.4
16/08:30am 12.7 11.1 8.6 76 2.1 NNE 7 13 4 7 1021.7 1020.1 0.4
16/08:00am 12.3 10.8 8.4 77 2.0 NNE 6 11 3 6 1021.9 1020.3 0.4
16/07:30am 10.9 10.1 8.3 84 1.3 NNE 2 4 1 2 1022.1 1020.5 0.4
16/07:00am 10.1 9.1 7.3 83 1.4 NE 2 4 1 2 1022.2 1020.7 0.4
16/06:30am 9.4 8.2 8.0 91 0.7 NNE 4 6 2 3 1022.3 1020.8 0.4
16/06:00am 7.9 6.6 5.9 87 0.9 NE 2 9 1 5 1022.4 1020.9 0.4
16/05:30am 8.5 7.4 6.8 89 0.8 NNE 2 7 1 4 1022.6 1021.1 0.4
16/05:00am 8.1 6.9 6.4 89 0.8 NNE 2 7 1 4 1022.6 1021.1 0.4
16/04:30am 7.8 6.5 5.9 88 0.9 NNE 2 6 1 3 1022.6 1021.1 0.4
16/04:00am 8.2 6.6 6.5 89 0.8 NE 4 6 2 3 1022.9 1021.3 0.4
16/03:30am 7.5 6.5 5.8 89 0.8 CALM 0 4 0 2 1023.1 1021.5 0.4
16/03:00am 7.3 6.2 5.3 87 0.9 CALM 0 2 0 1 1023.3 1021.7 0.4
16/02:30am 7.4 6.2 4.7 83 1.2 CALM 0 4 0 2 1023.7 1022.2 0.4
16/02:00am 7.4 6.0 3.8 78 1.6 CALM 0 0 0 0 1024.1 1022.6 0.4
16/01:30am 7.9 6.5 3.6 74 1.9 CALM 0 0 0 0 1024.6 1023.0 0.4
16/01:00am 7.8 6.6 4.4 79 1.5 CALM 0 0 0 0 1024.4 1022.9 0.4
16/12:30am 7.9 6.5 3.6 74 1.9 CALM 0 0 0 0 1024.9 1023.4 0.4
16/12:00am 7.7 6.1 2.2 68 2.4 CALM 0 0 0 0 1025.4 1023.9 0.4
 
Date/Time
EDT
Temp
°C
App
Temp
°C
Dew
Point
°C
Rel
Hum
%
Delta-T
°C
Wind Press
QNH
hPa
Press
MSL
hPa
Rain since
9am
mm
Dir  Spd
km/h
Gust
km/h
Spd
kts
Gust
kts
15/11:30pm 7.9 6.2 1.7 65 2.6 CALM 0 0 0 0 1025.5 1024.0 0.4
15/11:00pm 7.9 6.6 4.1 77 1.7 CALM 0 0 0 0 1025.5 1024.0 0.4
15/10:30pm 7.6 6.4 4.4 80 1.5 CALM 0 0 0 0 1025.6 1024.1 0.4
15/10:00pm 8.1 6.9 4.7 79 1.5 CALM 0 0 0 0 1025.7 1024.2 0.4
15/09:30pm 7.7 6.5 4.7 81 1.4 CALM 0 0 0 0 1025.6 1024.1 0.4
15/09:00pm 8.0 6.9 4.9 81 1.4 CALM 0 0 0 0 1025.2 1023.7 0.4
15/08:30pm 8.0 6.9 5.3 83 1.3 CALM 0 0 0 0 1025.1 1023.6 0.4
15/08:00pm 8.1 7.1 5.7 85 1.1 CALM 0 2 0 1 1024.9 1023.4 0.4
15/07:30pm 9.0 8.1 5.9 81 1.5 CALM 0 4 0 2 1024.6 1023.0 0.4
15/07:00pm 9.8 8.5 6.0 77 1.8 SSW 2 6 1 3 1023.9 1022.4 0.4
15/06:30pm 10.4 9.3 5.2 70 2.5 CALM 0 2 0 1 1023.7 1022.2 0.4
15/06:00pm 10.3 8.7 4.5 67 2.7 SW 2 7 1 4 1023.6 1022.1 0.4
15/05:30pm 11.9 10.1 5.5 65 3.1 SSW 4 9 2 5 1023.3 1021.7 0.4
15/05:00pm 10.7 8.9 5.3 69 2.6 SW 4 7 2 4 1023.3 1021.7 0.4
15/04:30pm 11.5 9.4 6.0 69 2.7 SSW 6 11 3 6 1023.0 1021.4 0.4
15/04:00pm 10.9 9.0 6.5 74 2.1 SW 6 9 3 5 1023.3 1021.7 0.4
15/03:30pm 10.9 9.0 6.5 74 2.1 SW 6 11 3 6 1023.2 1021.6 0.4
15/03:00pm 11.3 9.4 6.8 74 2.2 SSW 6 9 3 5 1023.2 1021.6 0.4
15/02:30pm 10.5 9.5 8.9 90 0.8 SSW 4 6 2 3 1023.5 1022.0 0.4
15/02:00pm 10.0 8.8 9.5 97 0.3 SW 6 11 3 6 1023.6 1022.1 0.4
15/01:30pm 9.3 8.3 9.0 98 0.2 SW 4 6 2 3 1023.5 1022.0 0.2
15/01:00pm 8.9 7.4 8.5 97 0.2 SSW 6 11 3 6 1023.3 1021.7 0.2
15/12:30pm 9.2 8.5 8.7 97 0.3 SW 2 9 1 5 1023.3 1021.7 0.0
15/12:00pm 8.9 7.4 8.3 96 0.3 SW 6 11 3 6 1023.2 1021.6 0.0
15/11:30am 9.2 8.0 8.1 93 0.5 SW 4 9 2 5 1023.1 1021.5 0.0
15/11:00am 12.2 10.8 8.9 80 1.7 SW 6 11 3 6 1022.9 1021.3 0.0
15/10:30am 12.0 9.9 8.1 77 2.0 SW 9 20 5 11 1022.5 1021.0 0.0
15/10:00am 11.2 9.6 8.6 84 1.3 SW 7 13 4 7 1022.4 1020.9 0.0
15/09:30am 10.3 8.6 8.4 88 1.0 SW 7 13 4 7 1022.3 1020.8 0.0
15/09:00am 10.3 9.2 8.6 89 0.9 SSW 4 7 2 4 1022.1 1020.5 14.6
15/08:30am 9.6 7.8 8.0 90 0.8 SW 7 15 4 8 1021.8 1020.2 14.6
15/08:00am 9.8 8.5 9.3 97 0.3 SW 6 9 3 5 1021.5 1019.9 14.6
15/07:30am 9.4 7.9 9.1 98 0.2 SW 7 15 4 8 1020.9 1019.4 14.6
15/07:00am 9.5 8.6 9.2 98 0.2 SSW 4 9 2 5 1020.5 1018.9 14.6
15/06:30am 9.9 9.5 9.6 98 0.2 SSW 2 9 1 5 1019.9 1018.3 14.6
15/06:00am 9.7 9.2 9.4 98 0.2 SW 2 9 1 5 1019.6 1018.0 14.6
15/05:30am 9.9 9.8 9.6 98 0.2 CALM 0 2 0 1 1018.9 1017.3 14.6
15/05:00am 9.8 9.7 9.5 98 0.2 CALM 0 4 0 2 1018.7 1017.1 14.6
15/04:30am 9.8 9.0 9.5 98 0.2 SW 4 17 2 9 1018.6 1017.0 14.6
15/04:00am 10.0 8.6 9.7 98 0.2 SW 7 15 4 8 1018.4 1016.8 14.4
15/03:30am 10.2 9.8 9.9 98 0.2 SW 2 6 1 3 1018.5 1016.9 14.4
15/03:00am 10.4 10.1 10.1 98 0.2 SW 2 7 1 4 1018.3 1016.7 14.4
15/02:30am 10.6 10.0 10.3 98 0.2 SSW 4 7 2 4 1018.4 1016.8 14.2
15/02:00am 10.9 10.7 10.6 98 0.2 SSW 2 6 1 3 1018.6 1017.0 13.8
15/01:30am 11.1 10.6 10.8 98 0.2 SW 4 6 2 3 1018.5 1016.9 13.8
15/01:00am 11.2 10.7 10.9 98 0.2 SSW 4 7 2 4 1018.6 1017.0 13.6
15/12:30am 11.6 11.6 11.3 98 0.2 SW 2 6 1 3 1018.8 1017.2 13.4
15/12:00am 11.8 11.5 11.5 98 0.2 SSW 4 6 2 3 1018.6 1017.0 13.2
 
Date/Time
EDT
Temp
°C
App
Temp
°C
Dew
Point
°C
Rel
Hum
%
Delta-T
°C
Wind Press
QNH
hPa
Press
MSL
hPa
Rain since
9am
mm
Dir  Spd
km/h
Gust
km/h
Spd
kts
Gust
kts
14/11:30pm 12.5 12.8 12.2 98 0.2 SSW 2 6 1 3 1018.6 1017.0 12.6
14/11:00pm 12.9 12.5 12.4 97 0.3 SW 6 11 3 6 1018.4 1016.8 10.8
14/10:30pm 13.8 14.5 13.3 97 0.3 SSW 2 6 1 3 1017.7 1016.1 10.6
14/10:00pm 14.1 15.2 13.6 97 0.3 CALM 0 4 0 2 1017.6 1016.0 10.6
14/09:30pm 14.7 15.7 14.2 97 0.3 SSW 2 6 1 3 1017.4 1015.8 10.6
14/09:00pm 15.4 17.0 14.9 97 0.3 CALM 0 2 0 1 1017.2 1015.6 10.6
14/08:30pm 15.4 17.0 14.8 96 0.4 CALM 0 0 0 0 1016.8 1015.2 10.6
14/08:00pm 15.4 17.0 14.8 96 0.4 CALM 0 0 0 0 1016.5 1014.8 10.6
14/07:30pm 15.7 17.4 15.1 96 0.4 CALM 0 0 0 0 1016.2 1014.5 10.4
14/07:00pm 15.5 17.1 14.9 96 0.4 CALM 0 0 0 0 1015.9 1014.3 10.2
14/06:30pm 15.6 17.2 14.8 95 0.5 CALM 0 0 0 0 1015.7 1014.1 6.8
14/06:00pm 16.6 18.1 14.6 88 1.2 CALM 0 0 0 0 1015.3 1013.7 1.0
14/05:30pm 18.3 19.5 13.8 75 2.6 CALM 0 0 0 0 1015.2 1013.5 0.8
14/05:00pm 19.7 20.4 13.4 67 3.7 E 2 9 1 5 1015.0 1013.3 0.8
14/04:30pm 19.8 21.1 14.0 69 3.4 CALM 0 4 0 2 1014.9 1013.2 0.8
14/04:00pm 20.0 21.7 15.2 74 2.9 CALM 0 4 0 2 1014.9 1013.2 0.8
14/03:30pm 18.6 19.6 14.3 76 2.6 NE 2 7 1 4 1014.9 1013.2 0.8
14/03:00pm 17.4 19.0 14.9 85 1.5 CALM 0 0 0 0 1015.4 1013.8 0.8
14/02:30pm 16.6 18.1 14.6 88 1.2 CALM 0 0 0 0 1015.7 1014.1 0.8
14/02:00pm 16.5 18.4 15.7 95 0.5 CALM 0 0 0 0 1015.8 1014.2 0.8
14/01:30pm 15.2 16.5 14.2 94 0.6 CALM 0 0 0 0 1016.0 1014.4 0.8
14/01:00pm 15.3 16.6 14.2 93 0.6 CALM 0 0 0 0 1015.9 1014.3 0.6
14/12:30pm 16.6 18.1 14.6 88 1.2 CALM 0 0 0 0 1016.0 1014.4 0.4
14/12:00pm 16.7 17.9 13.8 83 1.7 CALM 0 0 0 0 1016.2 1014.5 0.4
14/11:30am 16.8 18.2 14.3 85 1.5 CALM 0 0 0 0 1016.2 1014.5 0.4
14/11:00am 16.6 18.2 14.8 89 1.1 CALM 0 0 0 0 1016.3 1014.6 0.4
14/10:30am 16.2 17.7 14.7 91 0.9 CALM 0 0 0 0 1016.3 1014.6 0.4
14/10:00am 16.1 17.4 14.1 88 1.2 CALM 0 0 0 0 1016.2 1014.5 0.2
14/09:30am 17.3 18.1 12.6 74 2.7 CALM 0 0 0 0 1016.0 1014.4 0.0
14/09:00am 16.7 17.8 13.6 82 1.8 CALM 0 0 0 0 1015.9 1014.3 1.0
14/08:30am 16.7 17.5 12.5 76 2.4 CALM 0 0 0 0 1015.8 1014.2 0.6
14/08:00am 16.3 17.1 12.5 78 2.2 CALM 0 0 0 0 1015.5 1013.9 0.6
14/07:30am 15.6 16.4 12.4 81 1.8 CALM 0 0 0 0 1015.2 1013.5 0.6
14/07:00am 15.6 16.0 12.4 81 1.8 SW 2 4 1 2 1014.9 1013.2 0.6
14/06:30am 15.8 15.7 12.2 79 2.0 WSW 4 6 2 3 1014.9 1013.2 0.0
14/06:00am 16.0 16.2 11.8 76 2.4 SW 2 13 1 7 1014.9 1013.2 0.0
14/05:30am 16.5 15.8 11.4 72 2.8 WSW 6 13 3 7 1014.6 1012.9 0.0
14/05:00am 16.4 15.6 11.6 73 2.7 WSW 7 19 4 10 1014.0 1012.4 0.0
14/04:30am 16.5 15.9 11.6 73 2.7 SW 6 20 3 11 1013.7 1012.0 0.0
14/04:00am 16.7 16.1 11.8 73 2.8 NW 6 20 3 11 1013.6 1011.9 0.0
14/03:30am 16.2 14.4 12.2 77 2.3 N 13 24 7 13 1013.5 1011.8 0.0
14/03:00am 15.8 14.1 12.4 80 1.9 N 13 30 7 16 1013.3 1011.6 0.0
14/02:30am 15.7 16.0 12.3 80 1.9 NNE 2 6 1 3 1013.4 1011.7 0.0
14/02:00am 15.6 15.2 12.4 81 1.8 NNE 6 9 3 5 1013.7 1012.0 0.0
14/01:30am 16.1 15.6 12.5 79 2.0 NNE 7 11 4 6 1014.3 1012.7 0.0
14/01:00am 17.1 15.5 11.6 70 3.1 NNE 11 17 6 9 1014.9 1013.2 0.0
14/12:30am 17.1 15.5 11.6 70 3.1 NNE 11 19 6 10 1015.3 1013.7 0.0
14/12:00am 17.4 16.1 11.4 68 3.4 NNE 9 13 5 7 1015.8 1014.2 0.0
 
Date/Time
EDT
Temp
°C
App
Temp
°C
Dew
Point
°C
Rel
Hum
%
Delta-T
°C
Wind Press
QNH
hPa
Press
MSL
hPa
Rain since
9am
mm
Dir  Spd
km/h
Gust
km/h
Spd
kts
Gust
kts
13/11:30pm 17.4 15.8 11.7 69 3.2 N 11 19 6 10 1015.9 1014.3 0.0
13/11:00pm 17.7 15.3 11.5 67 3.5 NNW 15 28 8 15 1016.0 1014.4 0.0
13/10:30pm 18.0 15.5 11.1 64 3.9 NNW 15 28 8 15 1016.5 1014.8 0.0
13/10:00pm 18.6 17.2 10.9 61 4.3 NNW 9 22 5 12 1016.5 1014.8 0.0
13/09:30pm 18.8 16.9 10.6 59 4.6 NW 11 20 6 11 1016.5 1014.8 0.0
13/09:00pm 18.7 16.0 10.5 59 4.5 NNW 15 28 8 15 1016.0 1014.4 0.0
13/08:30pm 18.7 17.7 10.3 58 4.6 NE 6 9 3 5 1015.8 1014.2 0.0
13/08:00pm 19.2 18.0 10.2 56 5.0 NNW 7 17 4 9 1015.6 1014.0 0.0
13/07:30pm 19.8 18.1 10.0 53 5.4 NNW 9 20 5 11 1015.8 1014.2 0.0
13/07:00pm 20.5 19.1 9.4 49 6.1 NNW 7 22 4 12 1015.6 1014.0 0.0
13/06:30pm 20.9 19.6 9.2 47 6.4 NW 6 17 3 9 1015.6 1014.0 0.0
13/06:00pm 21.2 20.3 9.4 47 6.5 N 4 9 2 5 1015.5 1013.9 0.0
13/05:30pm 21.5 20.9 9.1 45 6.8 WNW 2 6 1 3 1015.7 1014.1 0.0
13/05:00pm 22.0 20.0 8.5 42 7.4 NNW 9 15 5 8 1015.7 1014.1 0.0
13/04:30pm 22.6 22.6 9.7 44 7.2 CALM 0 2 0 1 1015.5 1013.9 0.0
13/04:00pm 23.0 22.0 8.7 40 7.9 W 4 11 2 6 1015.5 1013.9 0.0
13/03:30pm 23.8 22.2 8.2 37 8.5 WNW 6 13 3 7 1015.2 1013.5 0.0
13/03:00pm 24.7 22.6 8.2 35 9.1 WNW 9 19 5 10 1015.0 1013.3 0.0

Other Formats:

Comma delimited format used in spreadsheet applications
http://www.bom.gov.au/fwo/IDV60801/IDV60801.94914.axf

JavaScript Object Notation format (JSON) in row-major order
http://www.bom.gov.au/fwo/IDV60801/IDV60801.94914.json